Tropical Cyclones
[Index]
Main Index Home Page Stock Weather Photos Extreme Storms Discussion Storm News and Storm Chasing Reports Tropical Cyclones / Hurricanes / Typhoons Weather Data and Links Wild Fires / Bushfires Weather Observation Techniques Weather Picture Catalogue Tornado Pictures and Reports Stock Video Footage and DVDs for sale
Season 1983-1984 Tropical Cyclone HARVEY Track Map
Season 1983-1984 Summaries: [BoM-AU] [JTWC-AU] [JTWC-SIO] [JTWC-SPAC] [JTWC-SH]
<<- Previous TC | BoM 1983-1984 Season | Next TC ->>

click for intensity scale information  Lat/long Grid: Show Hide

 Date Labels: Show Hide

Bureau of Meteorology Tropical Cyclone Data

Name: HARVEY
Number: 654 / 198384_13

03 Feb 1984 18:00 UTC to 09 Feb 1984 18:00 UTC

    date/time    lat    long    hPa   cat  kts
1984-02-03 18   14.7   152.3   1001                     
1984-02-04 00   15.0   152.7   1000                     
1984-02-04 06   15.3   153.1    999                     
1984-02-04 12   15.7   153.6   1000                     
1984-02-04 18   16.0   154.0   1000                     
1984-02-05 00   16.2   154.8    999                     
1984-02-05 06   16.6   155.6    997                     
1984-02-05 12   17.6   156.0    994    1                
1984-02-05 18   18.2   156.1    990    1                
1984-02-06 00   18.7   156.2    986    1                
1984-02-06 06   19.0   156.3    985    2                
1984-02-06 12   19.1   156.8    983    2                
1984-02-06 18   19.2   157.5    980    2                
1984-02-07 00   19.8   158.3    980    2                
1984-02-07 06   19.8   159.0    980    2                
1984-02-07 12   19.8   159.6    980    2                
1984-02-07 18   19.9   160.3    984    2                
1984-02-08 00   20.2   160.7    989    1                
1984-02-08 06   20.6   160.9    993    1                
1984-02-08 12   20.8   161.1    995    1                
1984-02-08 18   21.1   161.2    997                     
1984-02-09 00   21.4   161.4    999                     
1984-02-09 06   21.7   161.7   1000                     
1984-02-09 12   21.9   162.5   1000                     
1984-02-09 18   22.0   163.4   1001                     
Winds are 10-min average.

Tropical cyclone tracks developed by Michael Bath using data from the Bureau of Meteorology and Google Maps.


[Australian Severe Weather index] [Copyright Notice] [Email Contacts] [Search This Site] [Privacy Policy]
Document: tropical_cyclone_harvey.htm Updated: 30 May 2013